createdAt,value
2023-02-02T00:02:07.989Z,2.31
2023-02-02T00:04:36.779Z,2.22
2023-02-02T00:07:07.556Z,2.12
2023-02-02T00:09:34.415Z,2.02
2023-02-02T00:12:02.131Z,1.96
2023-02-02T00:14:29.081Z,1.87
2023-02-02T00:16:56.963Z,1.81
2023-02-02T00:19:27.785Z,1.76
2023-02-02T00:21:55.733Z,1.69
2023-02-02T00:24:23.067Z,1.61
2023-02-02T00:26:52.555Z,1.52
2023-02-02T00:29:31.206Z,1.45
2023-02-02T00:31:58.099Z,1.40
2023-02-02T00:34:25.566Z,1.33
2023-02-02T00:36:52.681Z,1.26
2023-02-02T00:39:23.023Z,1.21
2023-02-02T00:41:49.922Z,1.16
2023-02-02T00:44:35.588Z,1.14
2023-02-02T00:47:03.365Z,1.16
2023-02-02T00:49:30.300Z,1.18
2023-02-02T00:51:57.721Z,1.21
2023-02-02T00:54:25.199Z,1.21
2023-02-02T00:56:51.969Z,1.22
2023-02-02T00:59:18.802Z,1.23
2023-02-02T01:01:45.683Z,1.25
2023-02-02T01:04:12.580Z,1.25
2023-02-02T01:06:40.339Z,1.26
2023-02-02T01:09:08.607Z,1.29
2023-02-02T01:11:35.359Z,1.27
2023-02-02T01:14:02.143Z,1.27
2023-02-02T01:16:29.157Z,1.24
2023-02-02T01:18:55.985Z,1.19
2023-02-02T01:21:23.209Z,1.17
2023-02-02T01:23:50.472Z,1.17
2023-02-02T01:26:17.801Z,1.17
2023-02-02T01:28:45.259Z,1.17
2023-02-02T01:31:19.275Z,1.14
2023-02-02T01:33:47.472Z,1.10
2023-02-02T01:36:17.125Z,1.05
2023-02-02T01:38:44.860Z,0.98
2023-02-02T01:41:17.404Z,0.94
2023-02-02T01:43:44.199Z,0.90
2023-02-02T01:46:21.547Z,0.87
2023-02-02T01:48:58.958Z,0.82
2023-02-02T01:51:51.751Z,0.79
2023-02-02T01:54:42.083Z,0.80
2023-02-02T01:57:28.495Z,0.83
2023-02-02T01:59:59.111Z,0.86
2023-02-02T02:02:28.034Z,0.86
2023-02-02T02:04:55.785Z,0.82
2023-02-02T02:07:23.889Z,0.74
2023-02-02T02:09:50.913Z,0.63
2023-02-02T02:12:17.748Z,0.54
2023-02-02T02:15:06.496Z,0.46
2023-02-02T02:18:12.103Z,0.38
2023-02-02T02:21:12.646Z,0.33
2023-02-02T02:24:10.128Z,0.30
2023-02-02T02:26:58.529Z,0.27
2023-02-02T02:29:59.685Z,0.20
2023-02-02T02:32:55.820Z,0.17
2023-02-02T02:35:39.207Z,0.14
2023-02-02T02:38:40.267Z,0.12
2023-02-02T02:41:13.921Z,0.06
2023-02-02T02:43:45.838Z,0.04
2023-02-02T02:46:13.563Z,0.08
2023-02-02T02:48:44.778Z,0.14
2023-02-02T02:51:47.252Z,0.21
2023-02-02T02:54:26.257Z,0.28
2023-02-02T02:57:11.654Z,0.31
2023-02-02T02:59:47.441Z,0.32
2023-02-02T03:02:24.417Z,0.31
2023-02-02T03:05:14.954Z,0.29
2023-02-02T03:07:48.853Z,0.27
2023-02-02T03:10:20.965Z,0.24
2023-02-02T03:12:50.202Z,0.20
2023-02-02T03:15:18.040Z,0.18
2023-02-02T03:17:47.003Z,0.16
2023-02-02T03:20:14.049Z,0.15
2023-02-02T03:22:40.854Z,0.15
2023-02-02T03:25:07.986Z,0.14
2023-02-02T03:27:34.772Z,0.14
2023-02-02T03:30:01.718Z,0.14
2023-02-02T03:32:28.508Z,0.12
2023-02-02T03:34:55.261Z,0.12
2023-02-02T03:37:22.071Z,0.09
2023-02-02T03:39:48.814Z,0.08
2023-02-02T03:42:15.568Z,0.04
2023-02-02T03:44:42.354Z,0.02
2023-02-02T03:47:09.273Z,0.04
2023-02-02T03:49:36.142Z,0.07
2023-02-02T03:52:05.034Z,0.08
2023-02-02T03:54:31.844Z,0.08
2023-02-02T03:56:58.591Z,0.06
2023-02-02T03:59:25.460Z,0.02
2023-02-02T04:01:52.227Z,-0.02
2023-02-02T04:04:19.074Z,-0.06
2023-02-02T04:06:45.828Z,-0.12
2023-02-02T04:09:12.665Z,-0.16
2023-02-02T04:11:40.105Z,-0.20
2023-02-02T04:14:07.271Z,-0.22
2023-02-02T04:16:37.144Z,-0.28
2023-02-02T04:19:04.792Z,-0.34
2023-02-02T04:21:32.215Z,-0.38
2023-02-02T04:23:59.017Z,-0.43
2023-02-02T04:26:26.397Z,-0.49
2023-02-02T04:28:53.799Z,-0.55
2023-02-02T04:31:20.750Z,-0.60
2023-02-02T04:33:47.553Z,-0.68
2023-02-02T04:36:14.577Z,-0.72
2023-02-02T04:38:41.340Z,-0.75
2023-02-02T04:41:10.158Z,-0.72
2023-02-02T04:43:39.050Z,-0.70
2023-02-02T04:46:06.325Z,-0.71
2023-02-02T04:48:33.361Z,-0.72
2023-02-02T04:51:01.969Z,-0.75
2023-02-02T04:53:29.465Z,-0.82
2023-02-02T04:55:56.526Z,-0.89
2023-02-02T04:58:23.506Z,-0.98
2023-02-02T05:00:50.697Z,-1.04
2023-02-02T05:03:17.469Z,-1.09
2023-02-02T05:05:44.246Z,-1.15
2023-02-02T05:08:12.091Z,-1.18
2023-02-02T05:10:42.284Z,-1.23
2023-02-02T05:13:09.705Z,-1.27
2023-02-02T05:15:36.433Z,-1.32
2023-02-02T05:18:03.291Z,-1.35
2023-02-02T05:20:30.075Z,-1.36
2023-02-02T05:22:56.796Z,-1.39
2023-02-02T05:25:23.894Z,-1.36
2023-02-02T05:27:50.853Z,-1.32
2023-02-02T05:30:17.991Z,-1.29
2023-02-02T05:32:44.812Z,-1.24
2023-02-02T05:35:11.681Z,-1.19
2023-02-02T05:37:38.549Z,-1.17
2023-02-02T05:40:05.851Z,-1.15
2023-02-02T05:42:32.673Z,-1.13
2023-02-02T05:44:59.456Z,-1.10
2023-02-02T05:47:26.220Z,-1.05
2023-02-02T05:49:53.032Z,-1.08
2023-02-02T05:52:24.137Z,-1.01
2023-02-02T05:54:51.535Z,-0.89
2023-02-02T05:57:18.431Z,-0.75
2023-02-02T05:59:45.164Z,-0.60
2023-02-02T06:02:11.934Z,-0.42
2023-02-02T06:04:38.826Z,-0.22
2023-02-02T06:07:05.558Z,-0.05
2023-02-02T06:09:32.324Z,0.14
2023-02-02T06:11:59.148Z,0.28
2023-02-02T06:14:25.985Z,0.40
2023-02-02T06:16:52.852Z,0.51
2023-02-02T06:19:19.781Z,0.60
2023-02-02T06:21:46.576Z,0.69
2023-02-02T06:24:13.407Z,0.75
2023-02-02T06:26:40.397Z,0.78
2023-02-02T06:29:07.906Z,0.78
2023-02-02T06:31:34.836Z,0.78
2023-02-02T06:34:01.644Z,0.80
2023-02-02T06:36:28.626Z,0.82
2023-02-02T06:38:56.960Z,0.86
2023-02-02T06:41:24.777Z,0.90
2023-02-02T06:43:51.942Z,0.92
2023-02-02T06:46:18.975Z,0.95
2023-02-02T06:48:46.088Z,0.96
2023-02-02T06:51:12.903Z,0.99
2023-02-02T06:53:39.685Z,1.01
2023-02-02T06:56:11.686Z,0.96
2023-02-02T06:58:38.460Z,0.95
2023-02-02T07:01:10.668Z,1.01
2023-02-02T07:03:38.633Z,1.06
2023-02-02T07:06:25.806Z,1.16
2023-02-02T07:09:02.950Z,1.21
2023-02-02T07:11:38.195Z,1.33
2023-02-02T07:14:08.520Z,1.46
2023-02-02T07:16:35.681Z,1.63
2023-02-02T07:19:02.509Z,1.84
2023-02-02T07:21:35.541Z,2.10
2023-02-02T07:24:03.202Z,2.41
2023-02-02T07:26:30.081Z,2.68
2023-02-02T07:28:56.875Z,2.87
2023-02-02T07:31:26.499Z,2.96
2023-02-02T07:33:53.988Z,2.97
2023-02-02T07:36:23.926Z,2.84
2023-02-02T07:38:57.484Z,2.69
2023-02-02T07:41:24.846Z,2.55
2023-02-02T07:43:52.145Z,2.50
2023-02-02T07:46:20.357Z,2.54
2023-02-02T07:48:47.599Z,2.58
2023-02-02T07:51:16.708Z,2.66
2023-02-02T07:53:48.590Z,2.74
2023-02-02T07:56:18.404Z,2.78
2023-02-02T07:58:45.637Z,2.91
2023-02-02T08:01:14.946Z,3.08
2023-02-02T08:03:45.669Z,3.33
2023-02-02T08:06:16.378Z,3.58
2023-02-02T08:08:43.637Z,3.73
2023-02-02T08:11:12.381Z,3.82
2023-02-02T08:13:40.298Z,3.67
2023-02-02T08:16:08.376Z,3.60
2023-02-02T08:18:36.137Z,3.52
2023-02-02T08:21:04.821Z,3.49
2023-02-02T08:23:31.822Z,3.33
2023-02-02T08:26:11.048Z,3.24
2023-02-02T08:28:39.138Z,3.24
2023-02-02T08:31:20.597Z,3.21
2023-02-02T08:33:47.458Z,3.26
2023-02-02T08:36:19.344Z,3.33
2023-02-02T08:38:47.001Z,3.35
2023-02-02T08:41:16.932Z,3.45
2023-02-02T08:43:44.652Z,3.50
2023-02-02T08:46:14.472Z,3.56
2023-02-02T08:48:41.570Z,3.65
2023-02-02T08:51:12.016Z,3.76
2023-02-02T08:53:39.001Z,3.92
2023-02-02T08:56:07.687Z,4.14
2023-02-02T08:58:35.003Z,4.38
2023-02-02T09:01:12.741Z,4.60
2023-02-02T09:03:40.438Z,4.77
2023-02-02T09:06:09.501Z,4.79
2023-02-02T09:08:36.683Z,4.81
2023-02-02T09:11:08.647Z,4.89
2023-02-02T09:13:36.665Z,5.00
2023-02-02T09:16:05.136Z,5.13
2023-02-02T09:18:32.548Z,5.27
2023-02-02T09:21:01.236Z,5.49
2023-02-02T09:23:32.599Z,5.74
2023-02-02T09:26:10.516Z,5.95
2023-02-02T09:28:39.523Z,6.26
2023-02-02T09:31:06.841Z,6.41
2023-02-02T09:33:34.235Z,6.61
2023-02-02T09:36:09.213Z,6.97
2023-02-02T09:38:36.892Z,7.24
2023-02-02T09:41:27.834Z,7.65
2023-02-02T09:44:06.228Z,7.81
2023-02-02T09:46:47.979Z,8.03
2023-02-02T09:49:23.258Z,8.26
2023-02-02T09:51:58.199Z,8.62
2023-02-02T09:54:33.097Z,8.79
2023-02-02T09:57:03.206Z,8.63
2023-02-02T09:59:36.037Z,8.81
2023-02-02T10:02:32.417Z,8.87
2023-02-02T10:05:09.459Z,8.83
2023-02-02T10:07:41.612Z,8.77
2023-02-02T10:10:40.236Z,8.77
2023-02-02T10:13:16.227Z,8.90
2023-02-02T10:15:50.863Z,9.02
2023-02-02T10:18:37.285Z,9.35
2023-02-02T10:21:10.863Z,9.57
2023-02-02T10:23:44.330Z,10.25
2023-02-02T10:26:23.529Z,10.65
2023-02-02T10:29:05.646Z,11.02
2023-02-02T10:31:32.419Z,11.43
2023-02-02T10:34:15.323Z,11.61
2023-02-02T10:37:20.024Z,12.16
2023-02-02T10:40:03.893Z,12.57
2023-02-02T10:42:39.414Z,12.69
2023-02-02T10:45:19.300Z,12.89
2023-02-02T10:47:46.157Z,12.14
2023-02-02T10:50:12.801Z,12.04
2023-02-02T10:52:56.628Z,12.28
2023-02-02T10:55:41.551Z,11.70
2023-02-02T10:58:14.186Z,11.68
2023-02-02T11:00:53.145Z,11.51
2023-02-02T11:03:27.523Z,11.14
2023-02-02T11:06:13.352Z,10.93
2023-02-02T11:08:44.849Z,10.46
2023-02-02T11:11:17.524Z,10.18
2023-02-02T11:13:50.141Z,9.76
2023-02-02T11:16:17.117Z,9.62
2023-02-02T11:18:45.460Z,9.14
2023-02-02T11:21:29.597Z,9.17
2023-02-02T11:24:03.404Z,9.07
2023-02-02T11:26:50.964Z,8.92
2023-02-02T11:29:43.442Z,8.92
2023-02-02T11:32:25.237Z,9.10
2023-02-02T11:35:04.136Z,9.64
2023-02-02T11:37:32.657Z,9.64
2023-02-02T11:40:22.810Z,9.82
2023-02-02T11:42:51.776Z,9.65
2023-02-02T11:45:27.152Z,9.67
2023-02-02T11:47:54.033Z,9.86
2023-02-02T11:50:27.567Z,9.91
2023-02-02T11:52:55.454Z,9.70
2023-02-02T11:55:30.018Z,9.66
2023-02-02T11:58:27.711Z,9.78
2023-02-02T12:01:06.376Z,9.91
2023-02-02T12:03:38.993Z,9.97
2023-02-02T12:06:35.700Z,9.66
2023-02-02T12:09:12.280Z,9.78
2023-02-02T12:12:02.854Z,9.69
2023-02-02T12:14:41.343Z,9.52
2023-02-02T12:17:22.316Z,9.38
2023-02-02T12:20:07.681Z,9.20
2023-02-02T12:22:52.835Z,9.16
2023-02-02T12:25:41.489Z,9.11
2023-02-02T12:28:44.997Z,9.07
2023-02-02T12:31:17.525Z,9.03
2023-02-02T12:33:57.642Z,9.10
2023-02-02T12:36:42.236Z,9.19
2023-02-02T12:39:22.455Z,9.41
2023-02-02T12:42:01.050Z,9.56
2023-02-02T12:44:42.623Z,9.41
2023-02-02T12:47:27.701Z,9.49
2023-02-02T12:50:12.206Z,9.37
2023-02-02T12:52:53.750Z,9.32
2023-02-02T12:55:26.571Z,9.33
2023-02-02T12:58:02.123Z,9.37
2023-02-02T13:00:44.127Z,9.47
2023-02-02T13:03:23.184Z,9.39
2023-02-02T13:06:19.361Z,9.39
2023-02-02T13:08:58.209Z,9.41
2023-02-02T13:11:39.364Z,9.44
2023-02-02T13:14:13.067Z,9.46
2023-02-02T13:16:48.523Z,9.52
2023-02-02T13:19:26.536Z,9.70
2023-02-02T13:21:58.018Z,9.78
2023-02-02T13:24:31.229Z,9.79
2023-02-02T13:27:01.705Z,9.75
2023-02-02T13:29:47.912Z,9.84
2023-02-02T13:32:29.091Z,9.77
2023-02-02T13:35:28.750Z,9.62
2023-02-02T13:38:23.030Z,9.40
2023-02-02T13:40:53.197Z,9.14
2023-02-02T13:43:26.169Z,8.71
2023-02-02T13:46:17.776Z,8.58
2023-02-02T13:49:02.482Z,8.52
2023-02-02T13:51:35.121Z,8.38
2023-02-02T13:54:33.380Z,8.36
2023-02-02T13:57:37.443Z,8.39
2023-02-02T14:00:25.132Z,8.39
2023-02-02T14:02:58.105Z,8.24
2023-02-02T14:05:31.953Z,8.30
2023-02-02T14:08:07.329Z,8.30
2023-02-02T14:10:38.062Z,8.20
2023-02-02T14:13:54.479Z,8.19
2023-02-02T14:16:41.660Z,8.15
2023-02-02T14:19:31.187Z,8.05
2023-02-02T14:22:11.968Z,7.98
2023-02-02T14:24:40.705Z,8.00
2023-02-02T14:27:07.449Z,7.96
2023-02-02T14:29:36.721Z,8.00
2023-02-02T14:32:11.628Z,7.99
2023-02-02T14:34:42.202Z,8.04
2023-02-02T14:37:24.205Z,8.07
2023-02-02T14:40:00.059Z,8.07
2023-02-02T14:43:01.817Z,8.09
2023-02-02T14:45:39.384Z,8.14
2023-02-02T14:48:20.657Z,8.13
2023-02-02T14:50:55.536Z,8.17
2023-02-02T14:53:40.376Z,8.30
2023-02-02T14:56:11.787Z,8.38
2023-02-02T14:58:45.936Z,8.49
2023-02-02T15:01:23.154Z,8.45
2023-02-02T15:04:15.898Z,8.45
2023-02-02T15:06:43.676Z,8.43
2023-02-02T15:09:23.441Z,8.39
2023-02-02T15:12:01.205Z,8.39
2023-02-02T15:14:51.372Z,8.36
2023-02-02T15:17:30.260Z,8.31
2023-02-02T15:20:06.900Z,8.21
2023-02-02T15:22:33.655Z,8.15
2023-02-02T15:25:13.816Z,8.08
2023-02-02T15:27:56.232Z,8.02
2023-02-02T15:30:24.691Z,7.96
2023-02-02T15:32:52.791Z,7.89
2023-02-02T15:35:30.178Z,7.83
2023-02-02T15:38:04.798Z,7.75
2023-02-02T15:40:32.305Z,7.70
2023-02-02T15:43:04.443Z,7.61
2023-02-02T15:45:43.413Z,7.57
2023-02-02T15:48:20.814Z,7.53
2023-02-02T15:50:51.258Z,7.48
2023-02-02T15:53:20.696Z,7.43
2023-02-02T15:55:47.716Z,7.39
2023-02-02T15:58:32.795Z,7.37
2023-02-02T16:01:14.497Z,7.34
2023-02-02T16:04:08.206Z,7.32
2023-02-02T16:06:35.535Z,7.28
2023-02-02T16:09:04.689Z,7.22
2023-02-02T16:11:31.741Z,7.20
2023-02-02T16:14:04.163Z,7.18
2023-02-02T16:16:36.247Z,7.20
2023-02-02T16:19:19.970Z,7.23
2023-02-02T16:22:03.313Z,7.25
2023-02-02T16:24:33.988Z,7.25
2023-02-02T16:27:04.210Z,7.22
2023-02-02T16:29:31.372Z,7.23
2023-02-02T16:31:58.497Z,7.25
2023-02-02T16:34:40.879Z,7.28
2023-02-02T16:37:12.579Z,7.28
2023-02-02T16:39:39.433Z,7.30
2023-02-02T16:42:10.950Z,7.31
2023-02-02T16:44:39.314Z,7.33
2023-02-02T16:47:08.740Z,7.37
2023-02-02T16:49:36.623Z,7.39
2023-02-02T16:52:18.202Z,7.40
2023-02-02T16:54:56.110Z,7.43
2023-02-02T16:57:34.342Z,7.45
2023-02-02T17:00:06.333Z,7.47
2023-02-02T17:02:40.759Z,7.47
2023-02-02T17:05:29.664Z,7.43
2023-02-02T17:08:05.654Z,7.35
2023-02-02T17:10:36.442Z,7.32
2023-02-02T17:13:23.849Z,7.18
2023-02-02T17:15:53.650Z,7.11
2023-02-02T17:18:20.496Z,7.04
2023-02-02T17:20:49.730Z,7.01
2023-02-02T17:23:18.480Z,6.97
2023-02-02T17:25:47.872Z,6.99
2023-02-02T17:28:18.615Z,6.95
2023-02-02T17:30:48.713Z,6.98
2023-02-02T17:33:18.087Z,6.95
2023-02-02T17:35:55.735Z,6.94
2023-02-02T17:38:24.692Z,6.97
2023-02-02T17:40:52.918Z,6.94
2023-02-02T17:43:19.830Z,6.90
2023-02-02T17:45:46.705Z,6.94
2023-02-02T17:48:14.191Z,6.94
2023-02-02T17:50:42.228Z,6.98
2023-02-02T17:53:14.756Z,7.00
2023-02-02T17:55:43.309Z,7.00
2023-02-02T17:58:13.302Z,6.98
2023-02-02T18:00:41.276Z,7.01
2023-02-02T18:03:19.945Z,7.02
2023-02-02T18:05:47.278Z,7.00
2023-02-02T18:08:14.519Z,6.98
2023-02-02T18:10:42.384Z,6.94
2023-02-02T18:13:15.983Z,6.90
2023-02-02T18:15:43.606Z,6.87
2023-02-02T18:18:12.452Z,6.87
2023-02-02T18:20:46.979Z,6.90
2023-02-02T18:23:14.392Z,6.85
2023-02-02T18:25:41.404Z,6.84
2023-02-02T18:28:08.988Z,6.71
2023-02-02T18:30:38.824Z,6.70
2023-02-02T18:33:08.788Z,6.61
2023-02-02T18:35:36.767Z,6.59
2023-02-02T18:38:03.480Z,6.50
2023-02-02T18:40:30.230Z,6.42
2023-02-02T18:42:57.037Z,6.42
2023-02-02T18:45:24.354Z,6.34
2023-02-02T18:47:51.345Z,6.22
2023-02-02T18:50:18.439Z,6.14
2023-02-02T18:52:45.213Z,6.06
2023-02-02T18:55:11.975Z,5.89
2023-02-02T18:57:38.819Z,5.74
2023-02-02T19:00:06.202Z,5.67
2023-02-02T19:02:33.044Z,5.52
2023-02-02T19:05:18.626Z,5.42
2023-02-02T19:07:54.577Z,5.33
2023-02-02T19:10:22.722Z,5.20
2023-02-02T19:13:03.636Z,5.12
2023-02-02T19:15:34.175Z,4.98
2023-02-02T19:18:01.290Z,4.92
2023-02-02T19:20:30.344Z,4.88
2023-02-02T19:23:07.091Z,4.82
2023-02-02T19:25:33.936Z,4.81
2023-02-02T19:28:09.109Z,4.79
2023-02-02T19:30:36.079Z,4.79
2023-02-02T19:33:02.851Z,4.79
2023-02-02T19:35:32.423Z,4.80
2023-02-02T19:38:01.855Z,4.81
2023-02-02T19:40:28.950Z,4.80
2023-02-02T19:43:08.232Z,4.81
2023-02-02T19:45:35.846Z,4.82
2023-02-02T19:48:14.093Z,4.80
2023-02-02T19:50:41.890Z,4.81
2023-02-02T19:53:23.276Z,4.84
2023-02-02T19:55:52.364Z,4.89
2023-02-02T19:58:22.174Z,4.92
2023-02-02T20:00:53.972Z,4.96
2023-02-02T20:03:24.294Z,4.92
2023-02-02T20:05:52.587Z,4.87
2023-02-02T20:08:26.883Z,4.83
2023-02-02T20:10:55.964Z,4.80
2023-02-02T20:13:35.670Z,4.74
2023-02-02T20:16:08.145Z,4.77
2023-02-02T20:18:49.433Z,4.88
2023-02-02T20:21:24.541Z,5.03
2023-02-02T20:23:51.455Z,5.20
2023-02-02T20:26:33.519Z,5.40
2023-02-02T20:29:13.824Z,5.54
2023-02-02T20:31:40.917Z,5.66
2023-02-02T20:34:29.612Z,5.78
2023-02-02T20:37:15.648Z,5.87
2023-02-02T20:40:02.434Z,5.94
2023-02-02T20:42:29.481Z,6.00
2023-02-02T20:44:58.212Z,6.02
2023-02-02T20:47:25.124Z,6.05
2023-02-02T20:49:51.889Z,6.09
2023-02-02T20:52:24.020Z,6.09
2023-02-02T20:54:52.844Z,6.10
2023-02-02T20:57:19.572Z,6.10
2023-02-02T20:59:46.426Z,6.07
2023-02-02T21:02:22.900Z,6.02
2023-02-02T21:04:51.272Z,6.04
2023-02-02T21:07:20.852Z,5.99
2023-02-02T21:09:50.004Z,6.00
2023-02-02T21:12:17.942Z,5.97
2023-02-02T21:14:47.554Z,5.96
2023-02-02T21:17:15.937Z,5.93
2023-02-02T21:19:44.062Z,5.91
2023-02-02T21:22:11.697Z,5.89
2023-02-02T21:24:38.734Z,5.83
2023-02-02T21:27:05.560Z,5.83
2023-02-02T21:29:32.823Z,5.82
2023-02-02T21:32:02.528Z,5.82
2023-02-02T21:34:30.883Z,5.80
2023-02-02T21:36:58.567Z,5.80
2023-02-02T21:39:35.152Z,5.80
2023-02-02T21:42:07.930Z,5.79
2023-02-02T21:44:36.286Z,5.77
2023-02-02T21:47:03.150Z,5.74
2023-02-02T21:49:39.370Z,5.66
2023-02-02T21:52:17.866Z,5.61
2023-02-02T21:54:44.747Z,5.53
2023-02-02T21:57:21.275Z,5.48
2023-02-02T21:59:57.461Z,5.43
2023-02-02T22:02:32.844Z,5.41
2023-02-02T22:05:01.877Z,5.39
2023-02-02T22:07:31.071Z,5.33
2023-02-02T22:09:57.815Z,5.33
2023-02-02T22:12:27.303Z,5.33
2023-02-02T22:15:00.187Z,5.34
2023-02-02T22:17:37.549Z,5.32
2023-02-02T22:20:13.295Z,5.33
2023-02-02T22:22:45.096Z,5.32
2023-02-02T22:25:17.824Z,5.33
2023-02-02T22:27:51.254Z,5.32
2023-02-02T22:30:35.173Z,5.32
2023-02-02T22:33:02.165Z,5.28
2023-02-02T22:35:29.353Z,5.30
2023-02-02T22:37:56.154Z,5.28
2023-02-02T22:40:22.896Z,5.25
2023-02-02T22:42:54.885Z,5.24
2023-02-02T22:45:22.070Z,5.19
2023-02-02T22:47:49.001Z,5.15
2023-02-02T22:50:24.864Z,4.91
2023-02-02T22:52:52.307Z,4.91
2023-02-02T22:55:20.016Z,4.79
2023-02-02T22:57:47.771Z,4.74
2023-02-02T23:00:20.613Z,4.74
2023-02-02T23:02:47.466Z,4.68
2023-02-02T23:05:16.127Z,4.65
2023-02-02T23:07:44.218Z,4.67
2023-02-02T23:10:19.066Z,4.67
2023-02-02T23:12:46.837Z,4.64
2023-02-02T23:15:15.173Z,4.64
2023-02-02T23:17:42.664Z,4.63
2023-02-02T23:20:12.388Z,4.58
2023-02-02T23:22:39.234Z,4.52
2023-02-02T23:25:06.530Z,4.51
2023-02-02T23:27:33.545Z,4.43
2023-02-02T23:30:00.285Z,4.39
2023-02-02T23:32:27.206Z,4.35
2023-02-02T23:34:53.976Z,4.24
2023-02-02T23:37:20.821Z,4.14
2023-02-02T23:39:47.679Z,3.98
2023-02-02T23:42:14.537Z,3.85
2023-02-02T23:44:41.309Z,3.75
2023-02-02T23:47:09.128Z,3.68
2023-02-02T23:49:36.604Z,3.60
2023-02-02T23:52:03.693Z,3.50
2023-02-02T23:54:31.443Z,3.44
2023-02-02T23:56:58.628Z,3.39
2023-02-02T23:59:25.505Z,3.36
